0.06C
ясно
ясно
Дата и времяТемператураДавление, мм рт.ст.Влажность, %Осадки
МинимумМаксимум
27.02.2024 17:00-2.69C0.06C76764ясно
27.02.2024 20:00-3.78C-1.22C76773переменная облачность
27.02.2024 23:00-5.66C-3.75C76784облачно с прояснениями
28.02.2024 02:00-7.19C-7.19C76694пасмурно
28.02.2024 05:00-6.21C-6.21C76695пасмурно
28.02.2024 08:00-4.52C-4.52C76696небольшой снег
28.02.2024 11:00-3.02C-3.02C76692небольшой снег
28.02.2024 14:00-1.92C-1.92C76686пасмурно
28.02.2024 17:00-2.06C-2.06C76884пасмурно
28.02.2024 20:00-2.73C-2.73C76890пасмурно
28.02.2024 23:00-3.01C-3.01C76894пасмурно
29.02.2024 02:00-3.17C-3.17C76797пасмурно
29.02.2024 05:00-4.09C-4.09C76797небольшой снег
29.02.2024 08:00-6.52C-6.52C76798небольшой снег
29.02.2024 11:00-3.36C-3.36C76794пасмурно
29.02.2024 14:00-2.1C-2.1C76890пасмурно
29.02.2024 17:00-6.42C-6.42C76896пасмурно
29.02.2024 20:00-10.22C-10.22C768100пасмурно
29.02.2024 23:00-4.76C-4.76C76894пасмурно
01.03.2024 02:00-11.57C-11.57C76999пасмурно
01.03.2024 05:00-14.52C-14.52C77199пасмурно
01.03.2024 08:00-16.43C-16.43C77199пасмурно
01.03.2024 11:00-11.36C-11.36C77494облачно с прояснениями
01.03.2024 14:00-7.75C-7.75C77487переменная облачность
01.03.2024 17:00-9.25C-9.25C77591переменная облачность
01.03.2024 20:00-13.95C-13.95C77797ясно
01.03.2024 23:00-16.01C-16.01C77799небольшая облачность
02.03.2024 02:00-18.29C-18.29C778100облачно с прояснениями
02.03.2024 05:00-20.08C-20.08C779100пасмурно
02.03.2024 08:00-19.54C-19.54C779100пасмурно
02.03.2024 11:00-10.38C-10.38C77895пасмурно
02.03.2024 14:00-5.72C-5.72C77788облачно с прояснениями
02.03.2024 17:00-7.25C-7.25C77690облачно с прояснениями
02.03.2024 20:00-9.46C-9.46C77494пасмурно
02.03.2024 23:00-7.58C-7.58C77395пасмурно
03.03.2024 02:00-6.2C-6.2C77195пасмурно
03.03.2024 05:00-6.39C-6.39C77095пасмурно
03.03.2024 08:00-6.91C-6.91C76896пасмурно
03.03.2024 11:00-4.46C-4.46C76894пасмурно
03.03.2024 14:00-2.41C-2.41C76890пасмурно
Дата и время наблюдения: 27.02.2024 15:38:57